Time;durP1;ratioP1;P1;durP2;ratioP2;P2;SDS_P1;SDS_P2;PMS_P1;PMS_P2;Temp;Humidity;BMP_temperature;BMP_pressure;BME280_temperature;BME280_humidity;BME280_pressure;Samples;Min_cycle;Max_cycle;Signal;HPM_P1;HPM_P2
2023/12/07 00:01:59;;;;;;;33.90;18.70;;;;;;;0.56;69.73;101639.73;107617;1250;99191;-62
2023/12/07 00:04:28;;;;;;;31.10;18.30;;;;;;;0.56;69.71;101634.60;107585;1250;112132;-61
2023/12/07 00:06:56;;;;;;;33.00;19.10;;;;;;;0.56;69.69;101643.26;107549;1251;109398;-61
2023/12/07 00:09:24;;;;;;;31.60;18.30;;;;;;;0.58;69.60;101648.64;107546;1253;107763;-62
2023/12/07 00:11:55;;;;;;;28.80;17.00;;;;;;;0.59;69.66;101648.59;107606;1253;99224;-60
2023/12/07 00:14:24;;;;;;;24.30;16.10;;;;;;;0.61;69.83;101644.83;107670;1251;99094;-61
2023/12/07 00:16:52;;;;;;;29.00;16.10;;;;;;;0.61;70.00;101646.42;107627;1251;112837;-61
2023/12/07 00:19:21;;;;;;;29.00;17.00;;;;;;;0.60;69.92;101647.67;107644;1251;110236;-63
2023/12/07 00:21:49;;;;;;;25.50;15.20;;;;;;;0.60;69.97;101658.64;107627;1252;108066;-62
2023/12/07 00:24:17;;;;;;;25.90;14.50;;;;;;;0.62;70.03;101660.70;107566;1250;99265;-62
2023/12/07 00:26:46;;;;;;;30.30;16.40;;;;;;;0.62;69.97;101658.40;107683;1251;99111;-63
2023/12/07 00:29:15;;;;;;;26.90;15.90;;;;;;;0.59;69.97;101655.48;107545;1250;112666;-62
2023/12/07 00:31:43;;;;;;;28.70;15.80;;;;;;;0.62;69.96;101647.98;107631;1250;109954;-61
2023/12/07 00:34:12;;;;;;;25.80;15.80;;;;;;;0.66;69.84;101651.92;107567;1252;108598;-61
2023/12/07 00:36:40;;;;;;;22.00;14.10;;;;;;;0.72;69.97;101653.33;107578;1250;99245;-61
2023/12/07 00:39:09;;;;;;;32.60;15.00;;;;;;;0.79;70.00;101656.62;107613;1250;99099;-61
2023/12/07 00:41:37;;;;;;;30.00;16.00;;;;;;;0.83;70.12;101659.32;107632;1251;113358;-60
2023/12/07 00:44:05;;;;;;;27.10;16.10;;;;;;;0.78;69.31;101654.34;107585;1251;109591;-60
2023/12/07 00:46:34;;;;;;;30.20;17.30;;;;;;;0.72;69.28;101652.79;107698;1250;107536;-61
2023/12/07 00:49:03;;;;;;;24.90;16.30;;;;;;;0.68;69.30;101648.31;107526;1253;99182;-63
2023/12/07 00:51:31;;;;;;;35.20;17.40;;;;;;;0.70;69.32;101657.27;107642;1253;99746;-61
2023/12/07 00:54:00;;;;;;;32.50;18.50;;;;;;;0.70;69.20;101654.08;107676;1253;113128;-63
2023/12/07 00:56:29;;;;;;;30.90;18.60;;;;;;;0.69;69.07;101642.48;107645;1253;109730;-61
2023/12/07 00:58:57;;;;;;;30.10;16.70;;;;;;;0.63;68.45;101634.35;107643;1255;108393;-61
2023/12/07 01:01:25;;;;;;;31.40;16.70;;;;;;;0.55;68.39;101642.38;107623;1253;99182;-62
2023/12/07 01:03:53;;;;;;;27.90;15.90;;;;;;;0.54;68.59;101638.20;107692;1251;99173;-62
2023/12/07 01:06:22;;;;;;;30.30;17.40;;;;;;;0.54;68.71;101639.61;107660;1251;112724;-62
2023/12/07 01:08:50;;;;;;;28.10;16.60;;;;;;;0.55;68.77;101642.04;107655;1251;109233;-61
2023/12/07 01:11:19;;;;;;;29.00;15.90;;;;;;;0.55;68.49;101640.27;107644;1254;107477;-61
2023/12/07 01:13:47;;;;;;;28.20;16.00;;;;;;;0.52;68.40;101632.23;107566;1251;99178;-61
2023/12/07 01:16:15;;;;;;;31.70;16.40;;;;;;;0.48;68.07;101629.19;107618;1251;99704;-61
2023/12/07 01:18:44;;;;;;;28.80;16.40;;;;;;;0.39;67.72;101627.04;107633;1251;113249;-66
2023/12/07 01:21:12;;;;;;;33.10;16.60;;;;;;;0.29;67.86;101625.93;107634;1251;109839;-62
2023/12/07 01:23:41;;;;;;;28.10;16.10;;;;;;;0.22;67.81;101624.56;107616;1256;108265;-62
2023/12/07 01:26:09;;;;;;;29.20;16.40;;;;;;;0.17;67.83;101627.36;107650;1251;99182;-62
2023/12/07 01:28:38;;;;;;;25.40;15.50;;;;;;;0.14;67.88;101629.39;107632;1251;99203;-62
2023/12/07 01:31:07;;;;;;;30.30;16.00;;;;;;;0.11;67.96;101632.84;107596;1254;112978;-62
2023/12/07 01:33:35;;;;;;;29.00;16.70;;;;;;;0.07;67.95;101634.38;107570;1251;109737;-62
2023/12/07 01:36:04;;;;;;;26.20;15.70;;;;;;;0.07;67.80;101636.30;107575;1251;107345;-61
2023/12/07 01:38:33;;;;;;;34.40;19.20;;;;;;;0.10;68.19;101633.22;107597;1251;99164;-61
2023/12/07 01:41:01;;;;;;;28.50;16.70;;;;;;;0.15;68.06;101633.23;107617;1251;99214;-61
2023/12/07 01:43:30;;;;;;;32.20;17.00;;;;;;;0.20;68.10;101632.91;107565;1253;112132;-62
2023/12/07 01:46:00;;;;;;;29.20;16.40;;;;;;;0.23;68.24;101625.41;107637;1252;109927;-60
2023/12/07 01:48:29;;;;;;;30.10;16.50;;;;;;;0.18;67.78;101623.09;107624;1253;107167;-61
2023/12/07 01:50:58;;;;;;;29.60;17.10;;;;;;;0.13;67.78;101620.41;107602;1253;99238;-62
2023/12/07 01:53:28;;;;;;;27.40;17.20;;;;;;;0.10;67.79;101622.48;107665;1251;99154;-62
2023/12/07 01:55:57;;;;;;;34.50;17.60;;;;;;;0.03;67.71;101615.80;107608;1251;113055;-63
2023/12/07 01:58:26;;;;;;;30.60;17.10;;;;;;;-0.03;67.72;101617.92;107600;1251;110938;-62
2023/12/07 02:00:55;;;;;;;32.20;17.30;;;;;;;-0.07;67.97;101620.15;107636;1251;109419;-62
2023/12/07 02:03:24;;;;;;;30.20;17.50;;;;;;;-0.11;67.84;101620.80;107570;1253;99187;-62
2023/12/07 02:05:52;;;;;;;31.80;18.00;;;;;;;-0.11;68.15;101624.87;107666;1251;99330;-63
2023/12/07 02:08:21;;;;;;;29.60;17.60;;;;;;;-0.10;68.36;101628.52;107592;1255;112846;-62
2023/12/07 02:10:49;;;;;;;31.20;18.40;;;;;;;-0.09;68.42;101623.57;107670;1251;109136;-61
2023/12/07 02:13:17;;;;;;;31.50;17.90;;;;;;;-0.08;68.42;101625.85;107597;1250;108919;-63
2023/12/07 02:15:46;;;;;;;35.60;19.40;;;;;;;-0.07;68.73;101620.49;107586;1254;99191;-64
2023/12/07 02:18:24;;;;;;;30.90;16.50;;;;;;;0.03;68.79;101624.48;107638;1251;99700;-62
2023/12/07 02:21:05;;;;;;;29.00;16.30;;;;;;;0.05;68.68;101626.14;107601;1250;113324;-62
2023/12/07 02:23:34;;;;;;;28.20;16.10;;;;;;;0.09;68.62;101633.43;107593;1250;110138;-62
2023/12/07 02:26:42;;;;;;;27.00;15.70;;;;;;;0.12;69.02;101639.84;107562;1251;107105;-62
2023/12/07 02:29:10;;;;;;;24.10;15.60;;;;;;;0.08;68.66;101647.56;107646;1249;99172;-62
2023/12/07 02:31:39;;;;;;;25.10;15.90;;;;;;;0.03;68.27;101647.73;107586;1250;99054;-63
2023/12/07 02:34:08;;;;;;;31.40;16.30;;;;;;;-0.02;68.43;101653.33;107708;1251;113254;-61
2023/12/07 02:36:39;;;;;;;23.90;14.80;;;;;;;-0.02;68.29;101659.14;107579;1251;108774;-63
2023/12/07 02:39:09;;;;;;;24.10;14.20;;;;;;;-0.01;68.29;101662.12;107699;1250;107627;-63
2023/12/07 02:41:39;;;;;;;31.20;14.90;;;;;;;0.01;68.36;101662.07;107620;1253;99288;-64
2023/12/07 02:44:08;;;;;;;28.80;15.60;;;;;;;0.04;68.06;101665.16;107585;1251;99740;-61
2023/12/07 02:46:37;;;;;;;26.00;14.50;;;;;;;0.03;68.18;101663.95;107591;1253;113197;-62
2023/12/07 02:49:06;;;;;;;22.40;14.80;;;;;;;0.05;68.24;101665.29;107635;1253;109744;-61
2023/12/07 02:51:34;;;;;;;27.40;15.00;;;;;;;0.08;68.29;101663.95;107590;1253;107788;-60
2023/12/07 02:54:03;;;;;;;24.30;15.30;;;;;;;0.09;67.92;101666.76;107654;1255;99138;-61
2023/12/07 02:56:31;;;;;;;24.80;14.80;;;;;;;0.02;67.56;101671.73;107645;1251;99195;-62
2023/12/07 02:59:00;;;;;;;27.10;14.30;;;;;;;-0.02;67.38;101671.86;107661;1251;112765;-60
2023/12/07 03:01:28;;;;;;;27.10;15.10;;;;;;;-0.09;67.27;101674.19;107634;1251;109146;-63
2023/12/07 03:03:56;;;;;;;26.80;15.20;;;;;;;-0.16;67.44;101674.91;107633;1251;107363;-63
2023/12/07 03:06:25;;;;;;;26.30;16.10;;;;;;;-0.20;67.77;101675.55;107589;1251;99190;-63
2023/12/07 03:08:53;;;;;;;27.00;17.10;;;;;;;-0.21;67.93;101675.39;107639;1250;99086;-63
2023/12/07 03:11:21;;;;;;;29.80;16.70;;;;;;;-0.22;67.89;101677.91;107626;1251;113618;-62
2023/12/07 03:13:50;;;;;;;34.70;18.70;;;;;;;-0.28;67.86;101678.42;107672;1254;110020;-63
2023/12/07 03:16:18;;;;;;;27.60;16.60;;;;;;;-0.35;68.05;101681.44;107668;1251;108387;-61
2023/12/07 03:18:46;;;;;;;34.40;17.70;;;;;;;-0.36;68.34;101681.30;107596;1250;99178;-62
2023/12/07 03:21:15;;;;;;;33.20;19.20;;;;;;;-0.37;68.09;101683.80;107616;1251;99176;-62
2023/12/07 03:23:43;;;;;;;30.40;17.50;;;;;;;-0.36;68.48;101681.28;107658;1251;114251;-60
2023/12/07 03:26:11;;;;;;;29.70;17.60;;;;;;;-0.36;68.35;101682.70;107669;1251;109445;-60
2023/12/07 03:28:39;;;;;;;33.40;18.10;;;;;;;-0.43;68.13;101677.80;107600;1253;107921;-62
2023/12/07 03:31:08;;;;;;;32.60;18.40;;;;;;;-0.51;68.51;101679.23;107602;1253;99654;-61
2023/12/07 03:33:36;;;;;;;33.30;17.60;;;;;;;-0.57;68.63;101688.91;107618;1255;99082;-63
2023/12/07 03:36:05;;;;;;;31.90;18.90;;;;;;;-0.65;68.79;101691.23;107591;1251;112964;-64
2023/12/07 03:38:34;;;;;;;30.60;18.20;;;;;;;-0.70;68.92;101689.96;107644;1251;108993;-62
2023/12/07 03:41:03;;;;;;;29.30;17.20;;;;;;;-0.72;69.12;101694.80;107612;1253;107133;-62
2023/12/07 03:43:32;;;;;;;29.40;17.70;;;;;;;-0.72;68.99;101696.20;107734;1251;99084;-62
2023/12/07 03:46:04;;;;;;;34.60;19.20;;;;;;;-0.75;68.97;101687.82;107640;1255;99128;-61
2023/12/07 03:48:33;;;;;;;27.80;17.30;;;;;;;-0.76;69.42;101687.84;107663;1250;111994;-62
2023/12/07 03:51:02;;;;;;;30.40;18.50;;;;;;;-0.73;69.28;101682.32;107621;1251;109108;-62
2023/12/07 03:53:30;;;;;;;30.70;18.10;;;;;;;-0.68;69.59;101687.11;107566;1251;105365;-62
2023/12/07 03:55:59;;;;;;;33.80;18.30;;;;;;;-0.64;69.69;101685.41;107633;1250;99207;-61
2023/12/07 03:58:27;;;;;;;32.20;17.20;;;;;;;-0.56;69.71;101682.04;107598;1253;99300;-61
2023/12/07 04:00:56;;;;;;;33.70;16.90;;;;;;;-0.56;69.38;101682.73;107618;1250;112801;-59
2023/12/07 04:03:24;;;;;;;26.10;15.90;;;;;;;-0.60;69.26;101680.19;107664;1251;109692;-62
2023/12/07 04:05:53;;;;;;;36.20;17.50;;;;;;;-0.60;69.35;101683.89;107596;1251;108657;-62
2023/12/07 04:08:21;;;;;;;29.70;17.30;;;;;;;-0.59;69.60;101683.52;107499;1252;99172;-62
2023/12/07 04:10:50;;;;;;;24.70;14.90;;;;;;;-0.58;69.47;101686.13;107618;1253;99074;-62
2023/12/07 04:13:18;;;;;;;31.10;17.50;;;;;;;-0.59;69.43;101690.05;107671;1251;113325;-61
2023/12/07 04:15:47;;;;;;;29.60;17.90;;;;;;;-0.57;69.59;101691.05;107655;1251;109162;-62
2023/12/07 04:18:15;;;;;;;27.70;16.50;;;;;;;-0.50;69.93;101684.85;107586;1252;107040;-63
2023/12/07 04:20:43;;;;;;;29.90;18.30;;;;;;;-0.49;69.62;101681.83;107619;1252;99186;-64
2023/12/07 04:23:12;;;;;;;29.20;17.50;;;;;;;-0.45;69.65;101679.45;107628;1253;99722;-62
2023/12/07 04:25:40;;;;;;;99.90;51.60;;;;;;;-0.37;69.98;101673.91;107644;1251;113646;-61
2023/12/07 04:28:09;;;;;;;30.00;18.60;;;;;;;-0.30;69.72;101673.20;107647;1251;108020;-62
2023/12/07 04:30:38;;;;;;;28.90;17.40;;;;;;;-0.28;69.41;101671.39;107614;1251;108123;-61
2023/12/07 04:33:06;;;;;;;30.60;17.10;;;;;;;-0.29;69.30;101669.63;107574;1255;99186;-62
2023/12/07 04:35:34;;;;;;;29.60;16.50;;;;;;;-0.30;69.14;101673.19;107631;1251;99708;-62
2023/12/07 04:38:03;;;;;;;28.60;17.70;;;;;;;-0.33;69.13;101674.88;107619;1251;113211;-63
2023/12/07 04:40:32;;;;;;;27.20;15.50;;;;;;;-0.37;68.89;101681.49;107640;1255;110029;-62
2023/12/07 04:43:01;;;;;;;29.40;16.90;;;;;;;-0.40;68.73;101684.56;107598;1252;107825;-63
2023/12/07 04:45:29;;;;;;;28.00;15.40;;;;;;;-0.46;68.65;101685.09;107602;1255;99171;-63
2023/12/07 04:47:57;;;;;;;27.00;14.70;;;;;;;-0.50;68.69;101684.13;107585;1252;99201;-62
2023/12/07 04:50:26;;;;;;;28.90;16.60;;;;;;;-0.59;68.55;101681.23;107588;1251;112994;-62
2023/12/07 04:52:55;;;;;;;26.40;15.70;;;;;;;-0.66;68.67;101680.35;107624;1252;108640;-63
2023/12/07 04:55:24;;;;;;;30.10;16.10;;;;;;;-0.67;68.92;101679.51;107565;1251;105454;-62
2023/12/07 04:57:53;;;;;;;29.70;15.50;;;;;;;-0.62;69.28;101685.54;107581;1253;99173;-62
2023/12/07 05:00:22;;;;;;;27.20;15.50;;;;;;;-0.57;69.16;101685.40;107499;1252;99710;-62
2023/12/07 05:02:51;;;;;;;28.30;15.90;;;;;;;-0.52;69.12;101688.61;107604;1253;113429;-62
2023/12/07 05:05:19;;;;;;;28.80;14.90;;;;;;;-0.51;68.93;101691.76;107629;1251;109799;-62
2023/12/07 05:07:48;;;;;;;26.40;15.10;;;;;;;-0.53;68.89;101691.98;107690;1251;107977;-61
2023/12/07 05:10:16;;;;;;;28.80;16.20;;;;;;;-0.57;68.57;101688.73;107600;1251;99176;-62
2023/12/07 05:12:44;;;;;;;24.50;15.00;;;;;;;-0.63;68.51;101688.21;107594;1251;99077;-62
2023/12/07 05:15:13;;;;;;;30.20;16.20;;;;;;;-0.65;68.46;101688.63;107594;1251;114126;-62
2023/12/07 05:17:41;;;;;;;29.30;16.50;;;;;;;-0.69;68.66;101697.17;107571;1251;109388;-62
2023/12/07 05:20:12;;;;;;;28.40;15.80;;;;;;;-0.73;68.70;101700.63;107650;1250;108155;-63
2023/12/07 05:22:40;;;;;;;27.50;15.90;;;;;;;-0.75;69.14;101704.55;107656;1251;99189;-61
2023/12/07 05:25:09;;;;;;;29.00;16.30;;;;;;;-0.74;69.28;101703.63;107573;1254;99065;-63
2023/12/07 05:27:37;;;;;;;27.50;13.90;;;;;;;-0.74;69.47;101705.04;107610;1253;113075;-62
2023/12/07 05:30:07;;;;;;;32.30;15.60;;;;;;;-0.74;69.29;101709.83;107624;1253;109831;-63
2023/12/07 05:32:35;;;;;;;28.30;15.00;;;;;;;-0.72;69.62;101706.95;107631;1253;107889;-63
2023/12/07 05:35:05;;;;;;;30.60;15.70;;;;;;;-0.68;69.55;101708.41;107627;1251;99392;-61
2023/12/07 05:37:34;;;;;;;35.00;21.70;;;;;;;-0.62;69.62;101706.16;107627;1251;99185;-60
2023/12/07 05:40:02;;;;;;;25.60;14.70;;;;;;;-0.57;69.50;101707.44;107609;1251;112922;-61
2023/12/07 05:42:31;;;;;;;23.80;15.20;;;;;;;-0.57;69.32;101706.00;107652;1251;108520;-61
2023/12/07 05:44:59;;;;;;;38.50;16.20;;;;;;;-0.57;69.06;101712.71;107576;1251;108431;-62
2023/12/07 05:47:28;;;;;;;31.60;16.70;;;;;;;-0.62;68.95;101716.71;107589;1253;99178;-62
2023/12/07 05:49:59;;;;;;;27.60;14.70;;;;;;;-0.66;68.94;101713.63;107622;1251;99066;-61
2023/12/07 05:52:28;;;;;;;26.00;15.30;;;;;;;-0.69;68.90;101713.56;107632;1254;114539;-62
2023/12/07 05:54:57;;;;;;;29.30;15.60;;;;;;;-0.69;69.08;101719.38;107679;1253;107966;-61
2023/12/07 05:57:25;;;;;;;31.50;17.40;;;;;;;-0.65;69.11;101717.67;107610;1253;108733;-63
2023/12/07 05:59:54;;;;;;;25.60;14.20;;;;;;;-0.61;69.07;101719.69;107630;1253;99031;-61
2023/12/07 06:02:22;;;;;;;33.60;16.60;;;;;;;-0.59;69.10;101719.81;107624;1251;99743;-62
2023/12/07 06:04:51;;;;;;;32.50;14.10;;;;;;;-0.53;69.09;101717.89;107594;1253;113096;-61
2023/12/07 06:07:20;;;;;;;33.20;14.40;;;;;;;-0.50;68.82;101716.92;107605;1254;109931;-61
2023/12/07 06:09:48;;;;;;;35.60;17.00;;;;;;;-0.49;68.76;101716.00;107658;1251;108901;-60
2023/12/07 06:12:16;;;;;;;35.50;17.00;;;;;;;-0.49;68.48;101720.41;107559;1254;99182;-62
2023/12/07 06:14:44;;;;;;;33.40;16.80;;;;;;;-0.50;68.74;101716.02;107555;1252;99261;-61
2023/12/07 06:17:13;;;;;;;44.10;21.70;;;;;;;-0.49;68.46;101718.64;107563;1253;114897;-61
2023/12/07 06:19:42;;;;;;;33.80;16.10;;;;;;;-0.51;68.35;101714.84;107482;1253;109901;-62
2023/12/07 06:22:10;;;;;;;28.50;16.40;;;;;;;-0.53;68.51;101716.30;107443;1253;107367;-63
2023/12/07 06:24:38;;;;;;;38.90;19.20;;;;;;;-0.53;68.45;101714.71;107557;1253;99290;-61
2023/12/07 06:27:07;;;;;;;34.10;18.70;;;;;;;-0.52;68.35;101712.92;107603;1253;99243;-61
2023/12/07 06:29:36;;;;;;;33.40;17.80;;;;;;;-0.53;68.42;101712.94;107567;1251;112464;-63
2023/12/07 06:32:04;;;;;;;43.10;21.20;;;;;;;-0.51;68.36;101708.67;107572;1253;109683;-62
2023/12/07 06:34:32;;;;;;;38.50;18.50;;;;;;;-0.52;68.26;101712.73;107615;1252;107459;-62
2023/12/07 06:37:00;;;;;;;35.20;18.10;;;;;;;-0.50;68.49;101714.10;107650;1251;99209;-61
2023/12/07 06:39:29;;;;;;;48.40;20.30;;;;;;;-0.46;68.39;101712.77;107636;1253;99701;-61
2023/12/07 06:41:57;;;;;;;40.90;21.40;;;;;;;-0.41;68.53;101718.80;107636;1253;112295;-60
2023/12/07 06:44:25;;;;;;;45.00;23.10;;;;;;;-0.33;68.30;101720.34;107571;1251;108841;-62
2023/12/07 06:46:54;;;;;;;44.70;20.00;;;;;;;-0.28;68.10;101710.14;107591;1252;108606;-60
2023/12/07 06:49:23;;;;;;;35.20;18.60;;;;;;;-0.25;68.15;101713.77;107588;1253;99176;-60
2023/12/07 06:52:02;;;;;;;31.20;17.90;;;;;;;-0.22;68.12;101724.42;107587;1252;99721;-60
2023/12/07 06:54:30;;;;;;;33.20;17.50;;;;;;;-0.16;68.27;101730.63;107661;1251;114230;-61
2023/12/07 06:56:59;;;;;;;45.60;16.90;;;;;;;-0.13;67.93;101730.73;107629;1251;109547;-63
2023/12/07 06:59:28;;;;;;;34.20;16.80;;;;;;;-0.10;68.22;101727.09;107608;1251;108938;-62
2023/12/07 07:01:56;;;;;;;35.10;15.20;;;;;;;-0.08;68.06;101730.20;107607;1251;99745;-64
2023/12/07 07:04:25;;;;;;;30.70;14.70;;;;;;;-0.03;68.07;101734.67;107583;1251;99182;-62
2023/12/07 07:06:53;;;;;;;32.80;13.70;;;;;;;0.02;67.54;101738.75;107680;1251;113530;-62
2023/12/07 07:09:22;;;;;;;26.50;15.40;;;;;;;0.03;67.10;101737.68;107595;1251;109890;-62
2023/12/07 07:11:50;;;;;;;25.10;14.40;;;;;;;0.04;67.22;101732.18;107552;1252;108467;-62
2023/12/07 07:14:18;;;;;;;22.20;12.90;;;;;;;0.12;67.08;101730.89;107604;1251;99186;-61
2023/12/07 07:16:47;;;;;;;25.60;13.40;;;;;;;0.15;66.40;101730.80;107603;1251;99365;-61
2023/12/07 07:19:16;;;;;;;24.60;14.20;;;;;;;0.19;66.29;101723.27;107597;1251;113929;-62
2023/12/07 07:21:45;;;;;;;32.40;14.00;;;;;;;0.21;65.94;101718.98;107589;1251;108516;-62
2023/12/07 07:24:14;;;;;;;36.50;15.00;;;;;;;0.21;66.14;101717.03;107624;1254;108306;-62
2023/12/07 07:26:43;;;;;;;29.50;13.60;;;;;;;0.20;65.65;101710.71;107597;1250;99735;-63
2023/12/07 07:29:11;;;;;;;34.60;14.10;;;;;;;0.16;65.80;101709.95;107562;1250;99070;-63
2023/12/07 07:31:40;;;;;;;35.30;15.10;;;;;;;0.14;65.73;101711.06;107532;1253;114471;-61
2023/12/07 07:34:08;;;;;;;35.70;16.60;;;;;;;0.13;65.79;101715.48;107595;1253;109911;-61
2023/12/07 07:36:37;;;;;;;42.10;20.10;;;;;;;0.15;65.83;101716.52;107573;1253;108269;-63
2023/12/07 07:39:08;;;;;;;71.00;30.70;;;;;;;0.17;65.66;101720.86;107545;1252;98950;-62
2023/12/07 07:41:37;;;;;;;56.00;22.90;;;;;;;0.17;65.74;101727.56;107613;1253;99166;-63
2023/12/07 07:44:05;;;;;;;52.70;22.50;;;;;;;0.22;65.85;101729.36;107607;1253;113502;-62
2023/12/07 07:46:34;;;;;;;31.20;16.80;;;;;;;0.26;65.57;101735.58;107595;1251;110189;-61
2023/12/07 07:49:03;;;;;;;29.30;14.90;;;;;;;0.29;65.55;101736.54;107628;1251;108067;-61
2023/12/07 07:51:32;;;;;;;30.70;16.00;;;;;;;0.35;65.62;101728.61;107619;1253;99255;-61
2023/12/07 07:54:01;;;;;;;34.90;16.20;;;;;;;0.41;65.68;101727.00;107624;1254;99265;-61
2023/12/07 07:56:29;;;;;;;32.70;14.50;;;;;;;0.51;65.58;101729.55;107589;1252;114142;-62
2023/12/07 07:59:00;;;;;;;29.30;15.10;;;;;;;0.52;65.83;101730.03;107664;1251;110465;-61
2023/12/07 08:01:29;;;;;;;30.10;15.50;;;;;;;0.56;65.40;101738.56;107579;1253;108270;-61
2023/12/07 08:03:57;;;;;;;39.20;17.60;;;;;;;0.57;65.54;101740.64;107604;1251;99852;-62
2023/12/07 08:06:25;;;;;;;29.40;15.40;;;;;;;0.61;65.08;101741.05;107644;1251;99785;-61
2023/12/07 08:08:54;;;;;;;33.90;14.90;;;;;;;0.61;64.70;101734.87;107610;1251;112447;-62
2023/12/07 08:11:22;;;;;;;29.20;13.10;;;;;;;0.65;64.87;101741.45;107574;1250;109826;-61
2023/12/07 08:13:50;;;;;;;29.00;14.00;;;;;;;0.69;65.11;101740.98;107556;1251;108239;-62
2023/12/07 08:16:19;;;;;;;26.70;13.50;;;;;;;0.76;65.55;101743.40;107536;1251;99172;-62
2023/12/07 08:18:47;;;;;;;28.70;13.60;;;;;;;0.89;64.99;101744.95;107595;1251;99093;-60
2023/12/07 08:21:21;;;;;;;33.60;13.50;;;;;;;0.93;64.05;101744.09;107537;1252;113659;-60
2023/12/07 08:23:55;;;;;;;26.90;13.90;;;;;;;1.01;64.52;101741.20;107428;1253;109143;-60
2023/12/07 08:26:24;;;;;;;34.10;15.00;;;;;;;1.09;64.26;101749.22;107600;1253;106690;-62
2023/12/07 08:28:53;;;;;;;29.70;14.80;;;;;;;1.17;64.34;101754.61;107633;1251;99313;-62
2023/12/07 08:31:24;;;;;;;24.10;13.40;;;;;;;1.27;64.19;101753.58;107658;1251;99213;-64
2023/12/07 08:33:52;;;;;;;21.50;12.30;;;;;;;1.39;64.22;101753.02;107633;1251;113475;-61
2023/12/07 08:36:21;;;;;;;28.80;13.90;;;;;;;1.51;63.74;101744.98;107604;1251;109726;-62
2023/12/07 08:38:51;;;;;;;23.00;13.00;;;;;;;1.63;63.44;101743.00;107591;1254;107636;-61
2023/12/07 08:41:19;;;;;;;24.20;13.70;;;;;;;1.77;63.55;101744.77;107608;1251;99248;-61
2023/12/07 08:43:47;;;;;;;28.30;15.00;;;;;;;1.94;63.79;101741.71;107491;1251;99765;-63
2023/12/07 08:46:16;;;;;;;28.30;12.60;;;;;;;2.09;63.37;101739.39;107715;1251;113426;-62
2023/12/07 08:48:45;;;;;;;27.10;13.20;;;;;;;2.20;62.42;101737.36;107609;1251;109046;-63
2023/12/07 08:51:13;;;;;;;23.20;13.60;;;;;;;2.22;60.41;101739.06;107579;1251;107655;-61
2023/12/07 08:53:42;;;;;;;23.40;13.20;;;;;;;2.24;61.05;101738.31;107652;1251;99172;-60
2023/12/07 08:56:12;;;;;;;38.50;13.90;;;;;;;2.29;61.02;101735.11;107547;1251;99170;-61
2023/12/07 08:58:41;;;;;;;27.20;13.60;;;;;;;2.30;60.30;101723.55;107595;1253;113128;-60
2023/12/07 09:01:11;;;;;;;30.60;14.30;;;;;;;2.32;60.54;101721.85;107675;1251;109722;-62
2023/12/07 09:03:57;;;;;;;31.70;14.10;;;;;;;2.34;59.65;101723.94;107582;1253;108243;-61
2023/12/07 09:06:25;;;;;;;24.50;13.80;;;;;;;2.25;59.95;101725.86;107605;1250;99523;-62
2023/12/07 09:08:54;;;;;;;30.40;14.70;;;;;;;2.23;60.18;101725.23;107669;1250;99233;-60
2023/12/07 09:11:23;;;;;;;27.70;16.10;;;;;;;2.16;59.95;101723.19;107671;1256;111981;-62
2023/12/07 09:13:52;;;;;;;25.80;14.50;;;;;;;2.14;59.94;101718.67;107591;1251;110038;-62
2023/12/07 09:16:21;;;;;;;31.60;15.10;;;;;;;2.13;59.25;101718.34;107505;1254;107463;-61
2023/12/07 09:18:50;;;;;;;25.10;13.20;;;;;;;2.10;59.47;101717.77;107553;1253;99175;-61
2023/12/07 09:21:19;;;;;;;24.30;13.20;;;;;;;2.07;59.93;101714.17;107637;1251;99062;-61
2023/12/07 09:23:47;;;;;;;26.30;13.30;;;;;;;2.13;60.27;101711.61;107653;1255;112855;-61
2023/12/07 09:26:15;;;;;;;26.80;12.90;;;;;;;2.21;60.27;101707.77;107604;1253;109696;-63
2023/12/07 09:28:44;;;;;;;25.30;13.10;;;;;;;2.26;59.91;101707.77;107651;1251;107303;-61
2023/12/07 09:31:12;;;;;;;25.80;14.00;;;;;;;2.31;59.78;101710.23;107638;1255;99191;-60
2023/12/07 09:33:41;;;;;;;20.90;12.80;;;;;;;2.35;59.74;101706.35;107625;1252;99063;-61
2023/12/07 09:36:11;;;;;;;28.00;12.80;;;;;;;2.34;59.37;101704.60;107647;1251;112752;-63
2023/12/07 09:38:40;;;;;;;27.00;11.70;;;;;;;2.34;58.65;101699.30;107647;1252;109989;-61
2023/12/07 09:41:08;;;;;;;25.70;12.60;;;;;;;2.27;58.10;101695.86;107534;1253;107425;-61
2023/12/07 09:43:37;;;;;;;18.80;12.50;;;;;;;2.16;58.19;101698.40;107647;1251;99230;-62
2023/12/07 09:46:06;;;;;;;30.60;13.90;;;;;;;2.16;58.78;101699.09;107648;1251;99843;-62
2023/12/07 09:48:38;;;;;;;21.40;11.50;;;;;;;2.17;58.40;101695.55;107619;1251;113500;-63
2023/12/07 09:51:07;;;;;;;24.70;11.70;;;;;;;2.12;57.95;101692.38;107619;1251;110304;-62
2023/12/07 09:53:38;;;;;;;29.00;12.40;;;;;;;2.07;58.37;101697.88;107633;1255;106125;-61
2023/12/07 09:56:07;;;;;;;19.90;11.20;;;;;;;2.09;58.37;101690.88;107537;1256;99177;-61
2023/12/07 09:58:35;;;;;;;20.70;11.70;;;;;;;2.14;57.70;101687.70;107592;1253;99062;-62
2023/12/07 10:01:09;;;;;;;21.30;11.90;;;;;;;2.12;57.22;101681.38;107600;1251;113589;-60
2023/12/07 10:03:37;;;;;;;39.20;13.90;;;;;;;2.12;57.45;101681.56;107592;1256;109464;-61
2023/12/07 10:06:06;;;;;;;32.50;16.10;;;;;;;2.14;57.79;101683.97;107635;1254;108753;-61
2023/12/07 10:08:37;;;;;;;29.10;14.30;;;;;;;2.15;57.57;101685.71;107615;1253;99236;-61
2023/12/07 10:11:08;;;;;;;31.20;14.20;;;;;;;2.16;57.76;101684.98;107596;1251;99054;-61
2023/12/07 10:13:37;;;;;;;35.60;13.30;;;;;;;2.19;57.84;101684.14;107209;1251;563983;-60
2023/12/07 10:16:14;;;;;;;28.30;13.30;;;;;;;2.11;57.04;101686.36;107628;1251;109186;-62
2023/12/07 10:18:43;;;;;;;24.90;13.70;;;;;;;1.95;57.09;101685.75;107570;1251;107642;-61
2023/12/07 10:21:13;;;;;;;32.90;13.00;;;;;;;1.88;57.64;101684.96;107600;1254;99259;-61
2023/12/07 10:23:43;;;;;;;26.20;13.60;;;;;;;1.86;57.57;101682.17;107681;1252;99190;-62
2023/12/07 10:26:12;;;;;;;30.80;13.90;;;;;;;1.94;57.91;101681.37;107544;1253;112307;-61
2023/12/07 10:28:41;;;;;;;31.60;13.50;;;;;;;2.03;57.74;101678.56;107603;1251;110298;-61
2023/12/07 10:31:10;;;;;;;25.10;12.70;;;;;;;2.11;57.87;101678.07;107619;1251;108392;-61
2023/12/07 10:33:38;;;;;;;32.50;14.00;;;;;;;2.17;57.47;101672.16;107641;1251;99163;-62
2023/12/07 10:36:08;;;;;;;30.10;14.60;;;;;;;2.22;57.66;101671.65;107606;1252;99274;-61
2023/12/07 10:38:39;;;;;;;36.20;14.50;;;;;;;2.25;57.70;101670.27;107638;1255;113606;-62
2023/12/07 10:41:12;;;;;;;24.50;13.20;;;;;;;2.24;57.20;101669.80;107599;1251;109166;-62
2023/12/07 10:43:44;;;;;;;28.60;13.90;;;;;;;2.18;57.18;101666.27;107680;1253;108055;-62
2023/12/07 10:46:18;;;;;;;28.10;15.30;;;;;;;2.15;57.27;101665.70;107606;1256;99198;-64
2023/12/07 10:48:56;;;;;;;24.80;14.70;;;;;;;2.15;57.73;101666.09;107577;1253;99728;-62
2023/12/07 10:51:33;;;;;;;27.80;13.70;;;;;;;2.17;57.59;101672.86;107588;1253;113323;-62
2023/12/07 10:54:04;;;;;;;35.80;16.30;;;;;;;2.17;57.20;101672.54;107465;1255;109024;-63
2023/12/07 10:56:43;;;;;;;38.10;15.10;;;;;;;2.21;57.65;101675.38;107597;1254;108123;-66
2023/12/07 10:59:13;;;;;;;34.70;15.60;;;;;;;2.27;57.92;101671.95;107648;1256;99192;-63
2023/12/07 11:01:57;;;;;;;40.00;15.70;;;;;;;2.32;57.56;101667.86;107674;1251;99208;-62
2023/12/07 11:04:27;;;;;;;35.80;15.40;;;;;;;2.37;57.95;101667.86;107641;1256;112496;-62
2023/12/07 11:07:03;;;;;;;33.60;15.90;;;;;;;2.42;57.82;101659.89;107689;1255;108768;-63
2023/12/07 11:09:39;;;;;;;32.80;15.50;;;;;;;2.40;57.32;101656.77;107640;1255;108214;-63
2023/12/07 11:12:17;;;;;;;37.70;15.50;;;;;;;2.29;57.34;101653.47;107623;1256;99274;-63